sensor_id;sensor_type;location;lat;lon;timestamp;P1;durP1;ratioP1;P2;durP2;ratioP2
21727;SDS011;11026;50.560;17.852;2023-08-07T00:00:33;1999.90;;;999.90;;
21727;SDS011;11026;50.560;17.852;2023-08-07T00:03:00;1999.90;;;999.90;;
21727;SDS011;11026;50.560;17.852;2023-08-07T00:05:30;1999.90;;;999.90;;
21727;SDS011;11026;50.560;17.852;2023-08-07T00:07:58;1999.90;;;999.90;;
21727;SDS011;11026;50.560;17.852;2023-08-07T00:10:26;1999.90;;;999.90;;
21727;SDS011;11026;50.560;17.852;2023-08-07T00:12:54;1999.90;;;999.90;;
21727;SDS011;11026;50.560;17.852;2023-08-07T00:15:28;1999.90;;;999.90;;
21727;SDS011;11026;50.560;17.852;2023-08-07T00:20:24;1955.03;;;952.08;;
21727;SDS011;11026;50.560;17.852;2023-08-07T00:22:59;1999.90;;;993.63;;
21727;SDS011;11026;50.560;17.852;2023-08-07T00:25:27;1999.90;;;973.45;;
21727;SDS011;11026;50.560;17.852;2023-08-07T00:27:55;1999.90;;;992.58;;
21727;SDS011;11026;50.560;17.852;2023-08-07T00:30:23;1999.90;;;999.90;;
21727;SDS011;11026;50.560;17.852;2023-08-07T00:32:50;1999.90;;;999.90;;
21727;SDS011;11026;50.560;17.852;2023-08-07T00:35:18;1999.90;;;999.90;;
21727;SDS011;11026;50.560;17.852;2023-08-07T00:37:45;1999.90;;;999.90;;
21727;SDS011;11026;50.560;17.852;2023-08-07T00:40:13;1999.90;;;972.17;;
21727;SDS011;11026;50.560;17.852;2023-08-07T00:42:46;1999.90;;;999.90;;
21727;SDS011;11026;50.560;17.852;2023-08-07T00:45:15;1999.90;;;999.90;;
21727;SDS011;11026;50.560;17.852;2023-08-07T00:47:44;1999.90;;;999.90;;
21727;SDS011;11026;50.560;17.852;2023-08-07T00:50:12;1999.90;;;999.90;;
21727;SDS011;11026;50.560;17.852;2023-08-07T00:52:41;1999.90;;;999.90;;
21727;SDS011;11026;50.560;17.852;2023-08-07T00:55:14;1999.90;;;999.90;;
21727;SDS011;11026;50.560;17.852;2023-08-07T00:57:42;1999.90;;;999.90;;
21727;SDS011;11026;50.560;17.852;2023-08-07T01:00:10;1999.90;;;999.90;;
21727;SDS011;11026;50.560;17.852;2023-08-07T01:02:41;1999.90;;;999.90;;
21727;SDS011;11026;50.560;17.852;2023-08-07T01:05:21;1999.90;;;999.90;;
21727;SDS011;11026;50.560;17.852;2023-08-07T01:07:51;1999.90;;;999.90;;
21727;SDS011;11026;50.560;17.852;2023-08-07T01:11:05;1999.90;;;999.90;;
21727;SDS011;11026;50.560;17.852;2023-08-07T01:16:11;1999.90;;;999.90;;
21727;SDS011;11026;50.560;17.852;2023-08-07T01:18:46;1999.90;;;999.90;;
21727;SDS011;11026;50.560;17.852;2023-08-07T01:21:26;1999.90;;;999.90;;
21727;SDS011;11026;50.560;17.852;2023-08-07T01:23:54;1999.90;;;999.90;;
21727;SDS011;11026;50.560;17.852;2023-08-07T01:26:22;1999.90;;;999.90;;
21727;SDS011;11026;50.560;17.852;2023-08-07T01:28:53;1999.90;;;999.90;;
21727;SDS011;11026;50.560;17.852;2023-08-07T01:31:41;1999.90;;;975.58;;
21727;SDS011;11026;50.560;17.852;2023-08-07T01:34:11;1999.90;;;999.90;;
21727;SDS011;11026;50.560;17.852;2023-08-07T01:36:45;1999.90;;;993.33;;
21727;SDS011;11026;50.560;17.852;2023-08-07T01:39:16;1999.90;;;999.83;;
21727;SDS011;11026;50.560;17.852;2023-08-07T01:41:46;1999.90;;;999.90;;
21727;SDS011;11026;50.560;17.852;2023-08-07T01:44:15;1999.90;;;999.90;;
21727;SDS011;11026;50.560;17.852;2023-08-07T01:46:43;1999.90;;;999.90;;
21727;SDS011;11026;50.560;17.852;2023-08-07T01:49:10;1999.90;;;975.65;;
21727;SDS011;11026;50.560;17.852;2023-08-07T01:51:38;1999.90;;;999.90;;
21727;SDS011;11026;50.560;17.852;2023-08-07T01:54:05;1999.90;;;999.90;;
21727;SDS011;11026;50.560;17.852;2023-08-07T01:56:34;1999.90;;;999.90;;
21727;SDS011;11026;50.560;17.852;2023-08-07T01:59:01;1999.90;;;999.90;;
21727;SDS011;11026;50.560;17.852;2023-08-07T02:01:29;1999.90;;;999.90;;
21727;SDS011;11026;50.560;17.852;2023-08-07T02:03:56;1999.90;;;999.90;;
21727;SDS011;11026;50.560;17.852;2023-08-07T02:06:29;1999.90;;;999.90;;
21727;SDS011;11026;50.560;17.852;2023-08-07T02:08:57;1999.90;;;999.90;;
21727;SDS011;11026;50.560;17.852;2023-08-07T02:11:26;1999.90;;;986.40;;
21727;SDS011;11026;50.560;17.852;2023-08-07T02:13:53;1999.90;;;999.90;;
21727;SDS011;11026;50.560;17.852;2023-08-07T02:16:21;1999.90;;;956.67;;
21727;SDS011;11026;50.560;17.852;2023-08-07T02:18:48;1757.00;;;876.72;;
21727;SDS011;11026;50.560;17.852;2023-08-07T02:21:15;1999.90;;;935.40;;
21727;SDS011;11026;50.560;17.852;2023-08-07T02:23:43;1999.90;;;935.63;;
21727;SDS011;11026;50.560;17.852;2023-08-07T02:26:10;1999.90;;;945.78;;
21727;SDS011;11026;50.560;17.852;2023-08-07T02:28:39;1999.90;;;903.05;;
21727;SDS011;11026;50.560;17.852;2023-08-07T02:31:07;1999.90;;;984.92;;
21727;SDS011;11026;50.560;17.852;2023-08-07T02:33:40;1999.90;;;984.88;;
21727;SDS011;11026;50.560;17.852;2023-08-07T02:36:08;1999.90;;;997.17;;
21727;SDS011;11026;50.560;17.852;2023-08-07T02:38:35;1679.15;;;864.92;;
21727;SDS011;11026;50.560;17.852;2023-08-07T02:41:03;1975.03;;;917.47;;
21727;SDS011;11026;50.560;17.852;2023-08-07T02:43:30;1885.00;;;881.20;;
21727;SDS011;11026;50.560;17.852;2023-08-07T02:46:01;1999.90;;;865.67;;
21727;SDS011;11026;50.560;17.852;2023-08-07T02:48:28;1984.80;;;894.92;;
21727;SDS011;11026;50.560;17.852;2023-08-07T02:50:56;1999.90;;;973.40;;
21727;SDS011;11026;50.560;17.852;2023-08-07T02:53:23;1999.90;;;983.55;;
21727;SDS011;11026;50.560;17.852;2023-08-07T02:55:52;1994.38;;;934.05;;
21727;SDS011;11026;50.560;17.852;2023-08-07T02:58:19;1986.25;;;920.22;;
21727;SDS011;11026;50.560;17.852;2023-08-07T03:00:47;1999.90;;;996.63;;
21727;SDS011;11026;50.560;17.852;2023-08-07T03:03:16;1999.90;;;995.03;;
21727;SDS011;11026;50.560;17.852;2023-08-07T03:05:48;1999.90;;;999.90;;
21727;SDS011;11026;50.560;17.852;2023-08-07T03:08:18;1970.30;;;812.65;;
21727;SDS011;11026;50.560;17.852;2023-08-07T03:10:55;1999.90;;;962.67;;
21727;SDS011;11026;50.560;17.852;2023-08-07T03:13:25;1999.90;;;993.53;;
21727;SDS011;11026;50.560;17.852;2023-08-07T03:15:59;1982.38;;;920.63;;
21727;SDS011;11026;50.560;17.852;2023-08-07T03:18:28;1999.90;;;992.50;;
21727;SDS011;11026;50.560;17.852;2023-08-07T03:20:59;1999.90;;;958.08;;
21727;SDS011;11026;50.560;17.852;2023-08-07T03:23:26;1999.90;;;986.67;;
21727;SDS011;11026;50.560;17.852;2023-08-07T03:26:02;1999.90;;;999.90;;
21727;SDS011;11026;50.560;17.852;2023-08-07T03:28:44;1999.90;;;999.90;;
21727;SDS011;11026;50.560;17.852;2023-08-07T03:31:15;1999.90;;;995.50;;
21727;SDS011;11026;50.560;17.852;2023-08-07T03:33:43;1999.90;;;957.58;;
21727;SDS011;11026;50.560;17.852;2023-08-07T03:36:11;1999.90;;;999.90;;
21727;SDS011;11026;50.560;17.852;2023-08-07T03:38:38;1999.90;;;999.90;;
21727;SDS011;11026;50.560;17.852;2023-08-07T03:41:06;1999.90;;;999.90;;
21727;SDS011;11026;50.560;17.852;2023-08-07T03:43:33;1999.90;;;999.22;;
21727;SDS011;11026;50.560;17.852;2023-08-07T03:46:01;1999.90;;;999.90;;
21727;SDS011;11026;50.560;17.852;2023-08-07T03:48:30;1999.90;;;966.15;;
21727;SDS011;11026;50.560;17.852;2023-08-07T03:51:04;1999.90;;;999.90;;
21727;SDS011;11026;50.560;17.852;2023-08-07T03:53:37;1999.90;;;999.90;;
21727;SDS011;11026;50.560;17.852;2023-08-07T03:56:04;1999.90;;;999.90;;
21727;SDS011;11026;50.560;17.852;2023-08-07T03:58:33;1999.90;;;958.97;;
21727;SDS011;11026;50.560;17.852;2023-08-07T04:01:00;1999.90;;;965.17;;
21727;SDS011;11026;50.560;17.852;2023-08-07T04:03:30;1999.90;;;999.90;;
21727;SDS011;11026;50.560;17.852;2023-08-07T04:05:57;1999.90;;;999.90;;
21727;SDS011;11026;50.560;17.852;2023-08-07T04:08:27;1999.90;;;981.55;;
21727;SDS011;11026;50.560;17.852;2023-08-07T04:11:10;1999.90;;;999.90;;
21727;SDS011;11026;50.560;17.852;2023-08-07T04:13:38;1999.90;;;999.90;;
21727;SDS011;11026;50.560;17.852;2023-08-07T04:16:06;1999.90;;;999.90;;
21727;SDS011;11026;50.560;17.852;2023-08-07T04:18:34;1999.90;;;999.90;;
21727;SDS011;11026;50.560;17.852;2023-08-07T04:21:02;1999.90;;;999.90;;
21727;SDS011;11026;50.560;17.852;2023-08-07T04:26:02;1999.90;;;999.90;;
21727;SDS011;11026;50.560;17.852;2023-08-07T04:28:30;1999.90;;;999.90;;
21727;SDS011;11026;50.560;17.852;2023-08-07T04:30:59;1999.90;;;999.90;;
21727;SDS011;11026;50.560;17.852;2023-08-07T04:33:28;1999.90;;;999.90;;
21727;SDS011;11026;50.560;17.852;2023-08-07T04:35:56;1999.90;;;996.75;;
21727;SDS011;11026;50.560;17.852;2023-08-07T04:38:23;1999.90;;;999.90;;
21727;SDS011;11026;50.560;17.852;2023-08-07T04:40:51;1999.90;;;999.90;;
21727;SDS011;11026;50.560;17.852;2023-08-07T04:43:19;1999.90;;;999.90;;
21727;SDS011;11026;50.560;17.852;2023-08-07T04:45:47;1999.90;;;999.90;;
21727;SDS011;11026;50.560;17.852;2023-08-07T04:48:16;1999.90;;;999.90;;
21727;SDS011;11026;50.560;17.852;2023-08-07T04:50:45;1999.90;;;999.90;;
21727;SDS011;11026;50.560;17.852;2023-08-07T04:53:13;1999.90;;;999.90;;
21727;SDS011;11026;50.560;17.852;2023-08-07T04:55:42;1999.90;;;999.90;;
21727;SDS011;11026;50.560;17.852;2023-08-07T04:58:11;1999.90;;;999.90;;
21727;SDS011;11026;50.560;17.852;2023-08-07T05:00:40;1999.90;;;999.90;;
21727;SDS011;11026;50.560;17.852;2023-08-07T05:03:08;1999.90;;;999.90;;
21727;SDS011;11026;50.560;17.852;2023-08-07T05:05:36;1999.90;;;999.90;;
21727;SDS011;11026;50.560;17.852;2023-08-07T05:08:05;1999.90;;;999.90;;
21727;SDS011;11026;50.560;17.852;2023-08-07T05:10:33;1999.90;;;999.90;;
21727;SDS011;11026;50.560;17.852;2023-08-07T05:13:00;1999.90;;;999.90;;
21727;SDS011;11026;50.560;17.852;2023-08-07T05:15:27;1999.90;;;999.90;;
21727;SDS011;11026;50.560;17.852;2023-08-07T05:17:57;1999.90;;;999.90;;
21727;SDS011;11026;50.560;17.852;2023-08-07T05:20:25;1999.90;;;864.10;;
21727;SDS011;11026;50.560;17.852;2023-08-07T05:22:53;1842.95;;;936.70;;
21727;SDS011;11026;50.560;17.852;2023-08-07T05:25:21;1999.90;;;996.92;;
21727;SDS011;11026;50.560;17.852;2023-08-07T05:27:49;1999.90;;;935.72;;
21727;SDS011;11026;50.560;17.852;2023-08-07T05:30:17;1985.18;;;992.92;;
21727;SDS011;11026;50.560;17.852;2023-08-07T05:32:44;1999.90;;;981.35;;
21727;SDS011;11026;50.560;17.852;2023-08-07T05:35:12;1999.90;;;989.67;;
21727;SDS011;11026;50.560;17.852;2023-08-07T05:37:40;1848.38;;;934.38;;
21727;SDS011;11026;50.560;17.852;2023-08-07T05:40:08;1999.90;;;881.42;;
21727;SDS011;11026;50.560;17.852;2023-08-07T05:45:28;1999.90;;;897.65;;
21727;SDS011;11026;50.560;17.852;2023-08-07T05:47:56;1896.03;;;958.83;;
21727;SDS011;11026;50.560;17.852;2023-08-07T05:50:24;1999.90;;;845.03;;
21727;SDS011;11026;50.560;17.852;2023-08-07T05:52:51;1694.43;;;898.83;;
21727;SDS011;11026;50.560;17.852;2023-08-07T05:55:19;1999.90;;;936.45;;
21727;SDS011;11026;50.560;17.852;2023-08-07T05:57:46;1820.65;;;922.03;;
21727;SDS011;11026;50.560;17.852;2023-08-07T06:00:20;1668.18;;;832.63;;
21727;SDS011;11026;50.560;17.852;2023-08-07T06:05:15;1830.93;;;787.13;;
21727;SDS011;11026;50.560;17.852;2023-08-07T06:07:43;1876.70;;;910.92;;
21727;SDS011;11026;50.560;17.852;2023-08-07T06:10:11;1891.63;;;936.00;;
21727;SDS011;11026;50.560;17.852;2023-08-07T06:12:38;1892.55;;;854.00;;
21727;SDS011;11026;50.560;17.852;2023-08-07T06:15:08;1999.90;;;982.70;;
21727;SDS011;11026;50.560;17.852;2023-08-07T06:17:37;1896.32;;;928.20;;
21727;SDS011;11026;50.560;17.852;2023-08-07T06:20:09;1651.38;;;715.47;;
21727;SDS011;11026;50.560;17.852;2023-08-07T06:22:38;1794.13;;;788.58;;
21727;SDS011;11026;50.560;17.852;2023-08-07T06:25:06;1999.90;;;866.50;;
21727;SDS011;11026;50.560;17.852;2023-08-07T06:27:40;1746.25;;;853.78;;
21727;SDS011;11026;50.560;17.852;2023-08-07T06:30:13;1999.90;;;798.58;;
21727;SDS011;11026;50.560;17.852;2023-08-07T06:35:09;1872.35;;;727.97;;
21727;SDS011;11026;50.560;17.852;2023-08-07T06:37:38;1999.90;;;788.08;;
21727;SDS011;11026;50.560;17.852;2023-08-07T06:40:05;1777.97;;;705.97;;
21727;SDS011;11026;50.560;17.852;2023-08-07T06:42:33;1726.07;;;873.70;;
21727;SDS011;11026;50.560;17.852;2023-08-07T06:45:01;1947.30;;;609.42;;
21727;SDS011;11026;50.560;17.852;2023-08-07T06:47:28;1749.15;;;796.92;;
21727;SDS011;11026;50.560;17.852;2023-08-07T06:49:55;1999.90;;;992.55;;
21727;SDS011;11026;50.560;17.852;2023-08-07T06:52:23;1999.90;;;882.13;;
21727;SDS011;11026;50.560;17.852;2023-08-07T06:54:50;1859.68;;;905.20;;
21727;SDS011;11026;50.560;17.852;2023-08-07T06:57:19;1742.63;;;831.13;;
21727;SDS011;11026;50.560;17.852;2023-08-07T06:59:46;1430.55;;;784.55;;
21727;SDS011;11026;50.560;17.852;2023-08-07T07:02:14;1814.53;;;791.80;;
21727;SDS011;11026;50.560;17.852;2023-08-07T07:04:41;1839.00;;;873.85;;
21727;SDS011;11026;50.560;17.852;2023-08-07T07:07:09;1588.50;;;874.88;;
21727;SDS011;11026;50.560;17.852;2023-08-07T07:09:36;1380.43;;;702.53;;
21727;SDS011;11026;50.560;17.852;2023-08-07T07:12:10;1709.82;;;872.38;;
21727;SDS011;11026;50.560;17.852;2023-08-07T07:14:39;1366.38;;;817.10;;
21727;SDS011;11026;50.560;17.852;2023-08-07T07:17:07;1427.15;;;813.60;;
21727;SDS011;11026;50.560;17.852;2023-08-07T07:19:34;1476.95;;;883.03;;
21727;SDS011;11026;50.560;17.852;2023-08-07T07:22:03;1788.60;;;845.55;;
21727;SDS011;11026;50.560;17.852;2023-08-07T07:24:31;1999.90;;;616.30;;
21727;SDS011;11026;50.560;17.852;2023-08-07T07:26:59;1999.90;;;630.63;;
21727;SDS011;11026;50.560;17.852;2023-08-07T07:29:32;1877.97;;;840.60;;
21727;SDS011;11026;50.560;17.852;2023-08-07T07:31:59;1999.90;;;863.17;;
21727;SDS011;11026;50.560;17.852;2023-08-07T07:34:27;1999.90;;;921.95;;
21727;SDS011;11026;50.560;17.852;2023-08-07T07:36:54;1745.43;;;884.15;;
21727;SDS011;11026;50.560;17.852;2023-08-07T07:39:21;1622.70;;;945.25;;
21727;SDS011;11026;50.560;17.852;2023-08-07T07:41:49;1999.90;;;987.33;;
21727;SDS011;11026;50.560;17.852;2023-08-07T07:44:16;1770.65;;;918.90;;
21727;SDS011;11026;50.560;17.852;2023-08-07T07:46:44;1712.50;;;929.63;;
21727;SDS011;11026;50.560;17.852;2023-08-07T07:51:42;1931.68;;;882.08;;
21727;SDS011;11026;50.560;17.852;2023-08-07T07:54:11;1465.28;;;595.05;;
21727;SDS011;11026;50.560;17.852;2023-08-07T07:56:43;1478.88;;;483.30;;
21727;SDS011;11026;50.560;17.852;2023-08-07T07:59:11;1529.82;;;520.47;;
21727;SDS011;11026;50.560;17.852;2023-08-07T08:01:39;1999.90;;;821.25;;
21727;SDS011;11026;50.560;17.852;2023-08-07T08:04:07;1829.32;;;757.60;;
21727;SDS011;11026;50.560;17.852;2023-08-07T08:06:34;1422.75;;;710.22;;
21727;SDS011;11026;50.560;17.852;2023-08-07T08:09:02;1869.40;;;811.50;;
21727;SDS011;11026;50.560;17.852;2023-08-07T08:11:31;1819.18;;;762.88;;
21727;SDS011;11026;50.560;17.852;2023-08-07T08:13:59;1722.70;;;717.92;;
21727;SDS011;11026;50.560;17.852;2023-08-07T08:16:26;1777.35;;;594.35;;
21727;SDS011;11026;50.560;17.852;2023-08-07T08:18:54;1298.20;;;382.05;;
21727;SDS011;11026;50.560;17.852;2023-08-07T08:21:21;1581.43;;;487.55;;
21727;SDS011;11026;50.560;17.852;2023-08-07T08:23:48;1941.28;;;736.63;;
21727;SDS011;11026;50.560;17.852;2023-08-07T08:26:16;1423.32;;;417.52;;
21727;SDS011;11026;50.560;17.852;2023-08-07T08:28:43;1976.35;;;809.58;;
21727;SDS011;11026;50.560;17.852;2023-08-07T08:31:11;1977.57;;;666.65;;
21727;SDS011;11026;50.560;17.852;2023-08-07T08:33:39;1292.63;;;405.42;;
21727;SDS011;11026;50.560;17.852;2023-08-07T08:36:07;1999.90;;;765.63;;
21727;SDS011;11026;50.560;17.852;2023-08-07T08:38:35;1688.70;;;539.38;;
21727;SDS011;11026;50.560;17.852;2023-08-07T08:41:03;1867.75;;;698.00;;
21727;SDS011;11026;50.560;17.852;2023-08-07T08:43:38;1378.75;;;458.25;;
21727;SDS011;11026;50.560;17.852;2023-08-07T08:46:07;1419.63;;;485.98;;
21727;SDS011;11026;50.560;17.852;2023-08-07T08:48:45;1995.15;;;765.80;;
21727;SDS011;11026;50.560;17.852;2023-08-07T08:51:19;1713.32;;;609.53;;
21727;SDS011;11026;50.560;17.852;2023-08-07T08:53:48;1985.53;;;787.45;;
21727;SDS011;11026;50.560;17.852;2023-08-07T08:56:20;1999.90;;;862.72;;
21727;SDS011;11026;50.560;17.852;2023-08-07T08:58:50;1938.47;;;762.80;;
21727;SDS011;11026;50.560;17.852;2023-08-07T09:01:19;1999.90;;;885.50;;
21727;SDS011;11026;50.560;17.852;2023-08-07T09:03:53;1999.90;;;820.60;;
21727;SDS011;11026;50.560;17.852;2023-08-07T09:06:21;1999.90;;;805.08;;
21727;SDS011;11026;50.560;17.852;2023-08-07T09:08:51;1898.75;;;725.03;;
21727;SDS011;11026;50.560;17.852;2023-08-07T09:11:20;1999.90;;;804.80;;
21727;SDS011;11026;50.560;17.852;2023-08-07T09:13:48;1913.60;;;703.90;;
21727;SDS011;11026;50.560;17.852;2023-08-07T09:16:16;1452.82;;;508.42;;
21727;SDS011;11026;50.560;17.852;2023-08-07T09:18:44;1815.97;;;682.78;;
21727;SDS011;11026;50.560;17.852;2023-08-07T09:21:24;1584.47;;;592.97;;
21727;SDS011;11026;50.560;17.852;2023-08-07T09:23:52;1941.35;;;897.13;;
21727;SDS011;11026;50.560;17.852;2023-08-07T09:26:22;1893.68;;;655.63;;
21727;SDS011;11026;50.560;17.852;2023-08-07T09:28:51;1822.22;;;618.47;;
21727;SDS011;11026;50.560;17.852;2023-08-07T09:31:23;1549.32;;;497.48;;
21727;SDS011;11026;50.560;17.852;2023-08-07T09:33:53;1836.45;;;807.25;;
21727;SDS011;11026;50.560;17.852;2023-08-07T09:38:50;1166.27;;;379.37;;
21727;SDS011;11026;50.560;17.852;2023-08-07T09:41:18;1217.28;;;311.92;;
21727;SDS011;11026;50.560;17.852;2023-08-07T09:43:47;1182.10;;;337.23;;
21727;SDS011;11026;50.560;17.852;2023-08-07T09:46:21;1999.90;;;999.90;;
21727;SDS011;11026;50.560;17.852;2023-08-07T09:51:25;1109.28;;;347.83;;
21727;SDS011;11026;50.560;17.852;2023-08-07T09:53:52;1347.13;;;424.83;;
21727;SDS011;11026;50.560;17.852;2023-08-07T09:56:21;1268.03;;;411.70;;
21727;SDS011;11026;50.560;17.852;2023-08-07T10:01:22;1538.15;;;460.95;;
21727;SDS011;11026;50.560;17.852;2023-08-07T10:03:49;1766.15;;;625.72;;
21727;SDS011;11026;50.560;17.852;2023-08-07T10:06:17;1966.57;;;809.85;;
21727;SDS011;11026;50.560;17.852;2023-08-07T10:08:46;1999.90;;;999.90;;
21727;SDS011;11026;50.560;17.852;2023-08-07T10:11:14;1764.38;;;655.55;;
21727;SDS011;11026;50.560;17.852;2023-08-07T10:13:45;1948.72;;;585.95;;
21727;SDS011;11026;50.560;17.852;2023-08-07T10:16:12;1976.20;;;801.08;;
21727;SDS011;11026;50.560;17.852;2023-08-07T10:18:42;1885.60;;;596.35;;
21727;SDS011;11026;50.560;17.852;2023-08-07T10:21:10;1726.00;;;633.60;;
21727;SDS011;11026;50.560;17.852;2023-08-07T10:23:39;1719.95;;;572.13;;
21727;SDS011;11026;50.560;17.852;2023-08-07T10:26:08;1560.95;;;592.60;;
21727;SDS011;11026;50.560;17.852;2023-08-07T10:28:38;1658.28;;;601.58;;
21727;SDS011;11026;50.560;17.852;2023-08-07T10:31:07;1999.90;;;805.15;;
21727;SDS011;11026;50.560;17.852;2023-08-07T10:33:38;1871.13;;;686.35;;
21727;SDS011;11026;50.560;17.852;2023-08-07T10:36:10;1848.70;;;865.00;;
21727;SDS011;11026;50.560;17.852;2023-08-07T10:38:38;1770.70;;;523.85;;
21727;SDS011;11026;50.560;17.852;2023-08-07T10:41:14;1999.90;;;637.55;;
21727;SDS011;11026;50.560;17.852;2023-08-07T10:43:45;1954.43;;;702.45;;
21727;SDS011;11026;50.560;17.852;2023-08-07T10:46:15;1999.90;;;592.30;;
21727;SDS011;11026;50.560;17.852;2023-08-07T10:48:58;1698.10;;;628.60;;
21727;SDS011;11026;50.560;17.852;2023-08-07T10:51:29;1208.88;;;314.63;;
21727;SDS011;11026;50.560;17.852;2023-08-07T10:54:01;1999.90;;;997.40;;
21727;SDS011;11026;50.560;17.852;2023-08-07T10:56:32;1408.05;;;598.45;;
21727;SDS011;11026;50.560;17.852;2023-08-07T10:59:08;1604.05;;;401.92;;
21727;SDS011;11026;50.560;17.852;2023-08-07T11:04:09;1999.90;;;844.72;;
21727;SDS011;11026;50.560;17.852;2023-08-07T11:06:41;1999.90;;;672.80;;
21727;SDS011;11026;50.560;17.852;2023-08-07T11:09:11;1999.90;;;915.58;;
21727;SDS011;11026;50.560;17.852;2023-08-07T11:14:08;1999.90;;;737.22;;
21727;SDS011;11026;50.560;17.852;2023-08-07T11:16:37;1999.90;;;855.25;;
21727;SDS011;11026;50.560;17.852;2023-08-07T11:19:05;1695.28;;;494.50;;
21727;SDS011;11026;50.560;17.852;2023-08-07T11:21:33;1999.90;;;860.05;;
21727;SDS011;11026;50.560;17.852;2023-08-07T11:24:03;1538.93;;;396.83;;
21727;SDS011;11026;50.560;17.852;2023-08-07T11:26:32;1999.90;;;778.60;;
21727;SDS011;11026;50.560;17.852;2023-08-07T11:29:06;1999.90;;;747.08;;
21727;SDS011;11026;50.560;17.852;2023-08-07T11:31:34;1886.55;;;652.00;;
21727;SDS011;11026;50.560;17.852;2023-08-07T11:34:07;1999.90;;;793.50;;
21727;SDS011;11026;50.560;17.852;2023-08-07T11:36:40;1999.90;;;856.17;;
21727;SDS011;11026;50.560;17.852;2023-08-07T11:39:08;1999.90;;;950.58;;
21727;SDS011;11026;50.560;17.852;2023-08-07T11:41:36;1999.90;;;944.28;;
21727;SDS011;11026;50.560;17.852;2023-08-07T11:44:07;1891.72;;;654.20;;
21727;SDS011;11026;50.560;17.852;2023-08-07T11:46:35;1520.43;;;444.98;;
21727;SDS011;11026;50.560;17.852;2023-08-07T11:49:03;1494.50;;;535.55;;
21727;SDS011;11026;50.560;17.852;2023-08-07T11:51:31;1932.30;;;676.38;;
21727;SDS011;11026;50.560;17.852;2023-08-07T11:54:00;1999.90;;;978.65;;
21727;SDS011;11026;50.560;17.852;2023-08-07T11:56:28;1999.90;;;897.25;;
21727;SDS011;11026;50.560;17.852;2023-08-07T11:58:57;1544.47;;;668.58;;
21727;SDS011;11026;50.560;17.852;2023-08-07T12:01:25;1717.65;;;775.42;;
21727;SDS011;11026;50.560;17.852;2023-08-07T12:03:58;1999.90;;;999.90;;
21727;SDS011;11026;50.560;17.852;2023-08-07T12:06:36;526.75;;;204.85;;
21727;SDS011;11026;50.560;17.852;2023-08-07T12:09:11;1999.90;;;999.90;;
21727;SDS011;11026;50.560;17.852;2023-08-07T12:11:39;1999.90;;;999.90;;
21727;SDS011;11026;50.560;17.852;2023-08-07T12:14:08;1999.90;;;999.90;;
21727;SDS011;11026;50.560;17.852;2023-08-07T12:16:44;1999.90;;;999.90;;
21727;SDS011;11026;50.560;17.852;2023-08-07T12:19:15;1999.90;;;999.90;;
21727;SDS011;11026;50.560;17.852;2023-08-07T12:21:43;1999.90;;;999.90;;
21727;SDS011;11026;50.560;17.852;2023-08-07T12:26:41;1999.90;;;999.90;;
21727;SDS011;11026;50.560;17.852;2023-08-07T12:29:09;1314.80;;;616.65;;
21727;SDS011;11026;50.560;17.852;2023-08-07T12:31:36;911.88;;;491.98;;
21727;SDS011;11026;50.560;17.852;2023-08-07T12:34:06;1099.30;;;541.65;;
21727;SDS011;11026;50.560;17.852;2023-08-07T12:36:38;1142.68;;;521.63;;
21727;SDS011;11026;50.560;17.852;2023-08-07T12:39:06;1999.90;;;741.03;;
21727;SDS011;11026;50.560;17.852;2023-08-07T12:41:35;1465.20;;;701.65;;
21727;SDS011;11026;50.560;17.852;2023-08-07T12:44:05;824.95;;;409.40;;
21727;SDS011;11026;50.560;17.852;2023-08-07T12:46:33;1503.65;;;606.03;;
21727;SDS011;11026;50.560;17.852;2023-08-07T12:49:05;1999.90;;;999.90;;
21727;SDS011;11026;50.560;17.852;2023-08-07T12:51:34;1999.90;;;999.90;;
21727;SDS011;11026;50.560;17.852;2023-08-07T12:54:01;1999.90;;;999.90;;
21727;SDS011;11026;50.560;17.852;2023-08-07T12:56:28;1999.90;;;999.90;;
21727;SDS011;11026;50.560;17.852;2023-08-07T12:58:56;1999.90;;;999.90;;
21727;SDS011;11026;50.560;17.852;2023-08-07T13:01:24;1947.75;;;863.90;;
21727;SDS011;11026;50.560;17.852;2023-08-07T13:03:53;1999.90;;;999.90;;
21727;SDS011;11026;50.560;17.852;2023-08-07T13:06:22;1999.90;;;999.90;;
21727;SDS011;11026;50.560;17.852;2023-08-07T13:08:52;1705.07;;;689.58;;
21727;SDS011;11026;50.560;17.852;2023-08-07T13:11:20;1999.90;;;999.90;;
21727;SDS011;11026;50.560;17.852;2023-08-07T13:13:49;1999.90;;;999.90;;
21727;SDS011;11026;50.560;17.852;2023-08-07T13:16:16;1999.90;;;871.28;;
21727;SDS011;11026;50.560;17.852;2023-08-07T13:18:44;1999.90;;;999.90;;
21727;SDS011;11026;50.560;17.852;2023-08-07T13:21:11;1999.90;;;999.90;;
21727;SDS011;11026;50.560;17.852;2023-08-07T13:23:40;1739.40;;;775.08;;
21727;SDS011;11026;50.560;17.852;2023-08-07T13:26:08;1999.90;;;999.90;;
21727;SDS011;11026;50.560;17.852;2023-08-07T13:28:38;1961.13;;;916.80;;
21727;SDS011;11026;50.560;17.852;2023-08-07T13:31:06;1786.10;;;892.50;;
21727;SDS011;11026;50.560;17.852;2023-08-07T13:33:34;1599.00;;;677.67;;
21727;SDS011;11026;50.560;17.852;2023-08-07T13:36:02;1999.90;;;928.03;;
21727;SDS011;11026;50.560;17.852;2023-08-07T13:38:30;1990.32;;;697.08;;
21727;SDS011;11026;50.560;17.852;2023-08-07T13:41:03;1999.90;;;626.80;;
21727;SDS011;11026;50.560;17.852;2023-08-07T13:43:31;1860.70;;;517.67;;
21727;SDS011;11026;50.560;17.852;2023-08-07T13:45:59;1695.68;;;262.83;;
21727;SDS011;11026;50.560;17.852;2023-08-07T13:48:29;1830.28;;;635.28;;
21727;SDS011;11026;50.560;17.852;2023-08-07T13:50:58;1999.90;;;999.90;;
21727;SDS011;11026;50.560;17.852;2023-08-07T13:53:27;1999.90;;;999.90;;
21727;SDS011;11026;50.560;17.852;2023-08-07T13:55:56;1999.90;;;999.90;;
21727;SDS011;11026;50.560;17.852;2023-08-07T13:58:24;1999.90;;;490.38;;
21727;SDS011;11026;50.560;17.852;2023-08-07T14:00:52;1689.82;;;750.72;;
21727;SDS011;11026;50.560;17.852;2023-08-07T14:03:20;1999.90;;;999.90;;
21727;SDS011;11026;50.560;17.852;2023-08-07T14:05:49;1736.72;;;724.55;;
21727;SDS011;11026;50.560;17.852;2023-08-07T14:08:17;1999.90;;;813.63;;
21727;SDS011;11026;50.560;17.852;2023-08-07T14:10:47;1963.32;;;873.53;;
21727;SDS011;11026;50.560;17.852;2023-08-07T14:13:15;1999.90;;;999.90;;
21727;SDS011;11026;50.560;17.852;2023-08-07T14:15:46;1999.90;;;999.90;;
21727;SDS011;11026;50.560;17.852;2023-08-07T14:18:13;1999.90;;;999.90;;